createdAt,value
2023-01-11T00:00:00.662Z,95.10
2023-01-11T00:02:27.635Z,95.00
2023-01-11T00:04:54.723Z,94.90
2023-01-11T00:07:21.501Z,95.10
2023-01-11T00:09:48.254Z,94.80
2023-01-11T00:12:15.147Z,94.80
2023-01-11T00:14:41.985Z,95.00
2023-01-11T00:17:08.761Z,94.70
2023-01-11T00:19:35.504Z,94.60
2023-01-11T00:22:02.319Z,94.60
2023-01-11T00:24:29.076Z,94.50
2023-01-11T00:26:56.004Z,94.50
2023-01-11T00:29:22.785Z,94.40
2023-01-11T00:31:49.621Z,94.40
2023-01-11T00:34:16.373Z,94.20
2023-01-11T00:36:43.154Z,94.20
2023-01-11T00:39:09.906Z,94.10
2023-01-11T00:41:55.271Z,94.10
2023-01-11T00:44:40.640Z,94.00
2023-01-11T00:47:32.489Z,94.00
2023-01-11T00:49:59.342Z,94.00
2023-01-11T00:52:26.123Z,94.00
2023-01-11T00:54:53.062Z,94.00
2023-01-11T00:57:19.811Z,94.00
2023-01-11T00:59:46.596Z,94.00
2023-01-11T01:02:13.508Z,94.00
2023-01-11T01:04:40.444Z,94.00
2023-01-11T01:07:07.278Z,94.00
2023-01-11T01:09:34.340Z,94.10
2023-01-11T01:12:03.871Z,94.10
2023-01-11T01:14:30.969Z,94.10
2023-01-11T01:17:02.501Z,94.10
2023-01-11T01:19:30.406Z,94.10
2023-01-11T01:21:58.009Z,94.20
2023-01-11T01:24:25.016Z,94.10
2023-01-11T01:26:51.956Z,94.10
2023-01-11T01:29:18.801Z,94.00
2023-01-11T01:31:45.601Z,94.00
2023-01-11T01:34:12.648Z,94.00
2023-01-11T01:36:39.529Z,94.00
2023-01-11T01:39:07.362Z,94.00
2023-01-11T01:41:35.040Z,94.00
2023-01-11T01:44:25.877Z,94.00
2023-01-11T01:46:52.666Z,94.00
2023-01-11T01:49:19.392Z,94.10
2023-01-11T01:51:51.891Z,94.10
2023-01-11T01:54:26.295Z,94.10
2023-01-11T01:56:56.098Z,94.10
2023-01-11T01:59:23.028Z,94.20
2023-01-11T02:01:49.998Z,94.20
2023-01-11T02:04:29.120Z,94.20
2023-01-11T02:07:04.696Z,94.20
2023-01-11T02:09:52.809Z,94.20
2023-01-11T02:12:22.714Z,94.20
2023-01-11T02:14:49.529Z,94.30
2023-01-11T02:17:16.366Z,94.30
2023-01-11T02:20:10.706Z,94.30
2023-01-11T02:23:09.865Z,94.30
2023-01-11T02:25:57.752Z,94.30
2023-01-11T02:28:41.607Z,94.30
2023-01-11T02:31:14.444Z,94.30
2023-01-11T02:34:03.338Z,94.40
2023-01-11T02:37:03.614Z,94.40
2023-01-11T02:40:07.464Z,94.40
2023-01-11T02:43:03.979Z,94.40
2023-01-11T02:45:42.776Z,94.40
2023-01-11T02:48:31.246Z,94.40
2023-01-11T02:51:02.563Z,94.50
2023-01-11T02:53:51.230Z,94.50
2023-01-11T02:56:20.322Z,94.50
2023-01-11T02:58:48.140Z,94.60
2023-01-11T03:01:14.911Z,94.60
2023-01-11T03:03:41.721Z,94.60
2023-01-11T03:06:11.366Z,94.60
2023-01-11T03:09:02.595Z,94.50
2023-01-11T03:12:07.166Z,94.50
2023-01-11T03:14:54.124Z,94.50
2023-01-11T03:17:52.220Z,94.80
2023-01-11T03:20:28.979Z,94.50
2023-01-11T03:23:10.686Z,94.50
2023-01-11T03:25:41.956Z,94.50
2023-01-11T03:28:16.329Z,94.50
2023-01-11T03:30:47.012Z,94.50
2023-01-11T03:33:23.035Z,94.50
2023-01-11T03:35:59.837Z,94.60
2023-01-11T03:38:33.350Z,94.60
2023-01-11T03:41:09.399Z,94.50
2023-01-11T03:43:38.543Z,94.80
2023-01-11T03:46:09.121Z,94.60
2023-01-11T03:48:47.647Z,94.60
2023-01-11T03:51:25.161Z,94.60
2023-01-11T03:54:17.272Z,94.60
2023-01-11T03:56:50.344Z,94.70
2023-01-11T03:59:17.502Z,94.70
2023-01-11T04:01:44.587Z,94.90
2023-01-11T04:04:11.442Z,94.80
2023-01-11T04:06:39.018Z,94.80
2023-01-11T04:09:06.567Z,94.80
2023-01-11T04:11:33.375Z,94.80
2023-01-11T04:14:01.388Z,94.80
2023-01-11T04:16:28.251Z,94.80
2023-01-11T04:18:55.026Z,94.80
2023-01-11T04:21:21.800Z,94.80
2023-01-11T04:23:48.911Z,94.90
2023-01-11T04:26:17.446Z,94.90
2023-01-11T04:28:44.845Z,94.90
2023-01-11T04:31:15.046Z,95.00
2023-01-11T04:33:41.887Z,95.00
2023-01-11T04:36:12.207Z,95.00
2023-01-11T04:38:38.941Z,95.00
2023-01-11T04:41:24.304Z,95.00
2023-01-11T04:43:53.703Z,95.00
2023-01-11T04:46:20.440Z,95.00
2023-01-11T04:48:48.772Z,95.20
2023-01-11T04:51:15.544Z,95.00
2023-01-11T04:53:42.326Z,95.20
2023-01-11T04:56:09.274Z,95.00
2023-01-11T04:58:38.114Z,95.00
2023-01-11T05:01:12.280Z,95.00
2023-01-11T05:03:39.270Z,95.00
2023-01-11T05:06:06.450Z,95.00
2023-01-11T05:08:33.424Z,95.00
2023-01-11T05:11:02.449Z,95.20
2023-01-11T05:13:44.942Z,95.00
2023-01-11T05:16:12.823Z,95.00
2023-01-11T05:18:41.245Z,95.00
2023-01-11T05:21:08.934Z,95.30
2023-01-11T05:23:38.536Z,95.00
2023-01-11T05:26:10.581Z,95.00
2023-01-11T05:28:37.474Z,95.00
2023-01-11T05:31:04.414Z,95.10
2023-01-11T05:33:31.386Z,95.00
2023-01-11T05:36:03.173Z,95.00
2023-01-11T05:38:30.021Z,95.00
2023-01-11T05:41:01.812Z,95.00
2023-01-11T05:43:29.047Z,95.10
2023-01-11T05:45:56.896Z,95.00
2023-01-11T05:48:24.111Z,95.10
2023-01-11T05:50:51.871Z,95.10
2023-01-11T05:53:19.042Z,95.00
2023-01-11T05:55:55.996Z,95.00
2023-01-11T05:58:23.243Z,95.00
2023-01-11T06:00:56.567Z,95.00
2023-01-11T06:03:24.420Z,95.00
2023-01-11T06:05:51.854Z,95.00
2023-01-11T06:08:18.743Z,95.00
2023-01-11T06:10:55.258Z,95.00
2023-01-11T06:13:28.727Z,94.90
2023-01-11T06:16:13.062Z,95.00
2023-01-11T06:18:42.288Z,94.90
2023-01-11T06:21:09.193Z,95.00
2023-01-11T06:23:38.016Z,95.00
2023-01-11T06:26:06.329Z,95.00
2023-01-11T06:28:33.118Z,95.00
2023-01-11T06:30:59.999Z,94.90
2023-01-11T06:33:27.754Z,94.90
2023-01-11T06:35:54.819Z,94.90
2023-01-11T06:38:22.335Z,94.80
2023-01-11T06:41:08.471Z,94.80
2023-01-11T06:43:35.732Z,94.70
2023-01-11T06:46:02.615Z,94.70
2023-01-11T06:48:29.513Z,94.70
2023-01-11T06:50:57.387Z,94.60
2023-01-11T06:53:26.742Z,94.60
2023-01-11T06:55:56.496Z,94.60
2023-01-11T06:58:26.184Z,94.60
2023-01-11T07:00:54.453Z,94.50
2023-01-11T07:03:23.950Z,94.50
2023-01-11T07:05:51.520Z,94.50
2023-01-11T07:08:18.453Z,94.50
2023-01-11T07:10:45.546Z,94.50
2023-01-11T07:13:12.354Z,94.40
2023-01-11T07:15:39.359Z,94.40
2023-01-11T07:18:06.338Z,94.40
2023-01-11T07:20:33.107Z,94.40
2023-01-11T07:23:00.574Z,94.50
2023-01-11T07:25:28.213Z,94.50
2023-01-11T07:28:03.161Z,94.40
2023-01-11T07:30:30.854Z,94.40
2023-01-11T07:32:58.102Z,94.40
2023-01-11T07:35:25.839Z,94.60
2023-01-11T07:37:53.304Z,94.40
2023-01-11T07:40:20.293Z,94.40
2023-01-11T07:43:09.473Z,94.50
2023-01-11T07:45:45.332Z,94.50
2023-01-11T07:48:13.321Z,94.50
2023-01-11T07:50:42.689Z,94.50
2023-01-11T07:53:10.962Z,94.50
2023-01-11T07:55:39.563Z,94.50
2023-01-11T07:58:07.405Z,94.60
2023-01-11T08:00:34.207Z,94.50
2023-01-11T08:03:01.277Z,94.30
2023-01-11T08:05:28.072Z,94.20
2023-01-11T08:07:54.857Z,94.00
2023-01-11T08:10:21.593Z,93.90
2023-01-11T08:13:07.633Z,93.90
2023-01-11T08:15:35.872Z,93.90
2023-01-11T08:18:03.936Z,93.80
2023-01-11T08:20:30.727Z,93.80
2023-01-11T08:22:57.470Z,93.80
2023-01-11T08:25:24.308Z,93.70
2023-01-11T08:27:51.100Z,93.60
2023-01-11T08:30:18.242Z,93.60
2023-01-11T08:32:45.131Z,93.50
2023-01-11T08:35:12.424Z,93.70
2023-01-11T08:37:39.244Z,93.40
2023-01-11T08:40:06.714Z,93.40
2023-01-11T08:42:34.058Z,93.40
2023-01-11T08:45:00.939Z,93.40
2023-01-11T08:47:27.721Z,93.60
2023-01-11T08:49:54.461Z,93.30
2023-01-11T08:52:21.242Z,93.30
2023-01-11T08:54:48.095Z,93.20
2023-01-11T08:57:14.889Z,93.20
2023-01-11T08:59:41.690Z,93.20
2023-01-11T09:02:09.305Z,93.20
2023-01-11T09:04:36.085Z,93.20
2023-01-11T09:07:03.534Z,93.10
2023-01-11T09:09:31.148Z,93.10
2023-01-11T09:12:00.284Z,93.40
2023-01-11T09:14:27.531Z,93.20
2023-01-11T09:16:54.579Z,93.20
2023-01-11T09:19:21.597Z,93.20
2023-01-11T09:21:48.706Z,93.30
2023-01-11T09:24:15.600Z,93.20
2023-01-11T09:26:43.581Z,93.30
2023-01-11T09:29:11.307Z,93.30
2023-01-11T09:31:38.436Z,93.30
2023-01-11T09:34:06.942Z,93.30
2023-01-11T09:36:36.065Z,93.30
2023-01-11T09:39:07.735Z,93.20
2023-01-11T09:41:44.998Z,93.10
2023-01-11T09:44:18.973Z,93.00
2023-01-11T09:46:48.286Z,92.90
2023-01-11T09:49:22.735Z,92.90
2023-01-11T09:51:50.818Z,92.80
2023-01-11T09:54:20.900Z,92.80
2023-01-11T09:56:53.752Z,92.90
2023-01-11T09:59:34.523Z,92.60
2023-01-11T10:02:10.146Z,92.40
2023-01-11T10:04:50.003Z,92.30
2023-01-11T10:07:26.466Z,92.30
2023-01-11T10:18:25.385Z,91.90
2023-01-11T10:19:41.267Z,91.80
2023-01-11T10:22:18.006Z,91.70
2023-01-11T10:24:50.532Z,91.60
2023-01-11T10:27:35.671Z,91.50
2023-01-11T10:30:24.993Z,91.30
2023-01-11T10:33:03.197Z,91.20
2023-01-11T10:35:37.916Z,91.10
2023-01-11T10:38:07.127Z,91.00
2023-01-11T10:41:25.526Z,90.80
2023-01-11T10:44:19.285Z,90.70
2023-01-11T10:46:50.993Z,90.60
2023-01-11T10:49:33.726Z,90.60
2023-01-11T10:52:21.494Z,90.40
2023-01-11T10:54:54.579Z,90.30
2023-01-11T10:58:01.414Z,90.20
2023-01-11T11:00:39.276Z,89.90
2023-01-11T11:03:38.023Z,89.70
2023-01-11T11:06:17.653Z,89.50
2023-01-11T11:08:54.326Z,90.00
2023-01-11T11:11:35.071Z,89.40
2023-01-11T11:14:32.567Z,89.50
2023-01-11T11:17:05.869Z,89.10
2023-01-11T11:19:32.999Z,89.00
2023-01-11T11:21:59.975Z,88.80
2023-01-11T11:25:05.405Z,88.50
2023-01-11T11:27:35.237Z,87.80
2023-01-11T11:30:02.158Z,87.70
2023-01-11T11:32:36.878Z,87.50
2023-01-11T11:35:04.244Z,86.90
2023-01-11T11:37:41.941Z,86.80
2023-01-11T11:40:28.987Z,86.40
2023-01-11T11:43:21.725Z,86.50
2023-01-11T11:46:02.281Z,86.60
2023-01-11T11:48:33.491Z,86.30
2023-01-11T11:51:05.452Z,86.30
2023-01-11T11:53:42.989Z,85.90
2023-01-11T11:56:18.103Z,85.50
2023-01-11T11:58:45.171Z,85.30
2023-01-11T12:01:32.632Z,85.10
2023-01-11T12:04:12.393Z,84.60
2023-01-11T12:06:39.197Z,84.50
2023-01-11T12:09:21.113Z,84.60
2023-01-11T12:11:47.998Z,84.40
2023-01-11T12:14:19.239Z,84.80
2023-01-11T12:16:46.211Z,83.70
2023-01-11T12:19:36.648Z,83.50
2023-01-11T12:22:20.139Z,83.10
2023-01-11T12:24:47.883Z,82.90
2023-01-11T12:27:18.285Z,83.30
2023-01-11T12:29:57.040Z,82.50
2023-01-11T12:33:08.267Z,81.70
2023-01-11T12:35:56.261Z,81.00
2023-01-11T12:38:26.143Z,80.70
2023-01-11T12:41:08.749Z,80.80
2023-01-11T12:44:20.291Z,80.40
2023-01-11T12:46:59.235Z,80.20
2023-01-11T12:49:37.984Z,80.40
2023-01-11T12:52:07.569Z,80.60
2023-01-11T12:54:43.989Z,81.20
2023-01-11T12:57:17.405Z,81.10
2023-01-11T13:00:11.597Z,81.10
2023-01-11T13:02:42.211Z,81.20
2023-01-11T13:05:23.610Z,82.70
2023-01-11T13:08:01.438Z,82.20
2023-01-11T13:10:43.942Z,82.30
2023-01-11T13:13:24.443Z,82.50
2023-01-11T13:16:00.309Z,82.70
2023-01-11T13:18:29.571Z,82.80
2023-01-11T13:21:06.999Z,83.00
2023-01-11T13:23:58.551Z,83.00
2023-01-11T13:26:34.209Z,83.40
2023-01-11T13:29:03.639Z,83.00
2023-01-11T13:31:32.016Z,83.10
2023-01-11T13:34:02.641Z,83.00
2023-01-11T13:36:33.252Z,83.10
2023-01-11T13:39:15.125Z,83.00
2023-01-11T13:41:48.333Z,82.40
2023-01-11T13:44:25.895Z,81.80
2023-01-11T13:47:06.337Z,81.40
2023-01-11T13:49:51.887Z,81.60
2023-01-11T13:52:26.159Z,81.50
2023-01-11T13:55:26.110Z,82.00
2023-01-11T13:58:20.751Z,81.90
2023-01-11T14:01:15.032Z,83.40
2023-01-11T14:04:06.083Z,86.30
2023-01-11T14:06:42.361Z,88.00
2023-01-11T14:09:24.391Z,89.60
2023-01-11T14:12:03.589Z,90.30
2023-01-11T14:14:37.557Z,90.60
2023-01-11T14:17:10.344Z,90.80
2023-01-11T14:19:52.103Z,91.00
2023-01-11T14:22:51.673Z,91.10
2023-01-11T14:25:44.623Z,91.30
2023-01-11T14:28:11.515Z,91.30
2023-01-11T14:30:45.839Z,91.30
2023-01-11T14:33:41.904Z,91.30
2023-01-11T14:36:54.027Z,91.30
2023-01-11T14:39:29.691Z,91.30
2023-01-11T14:42:30.550Z,91.30
2023-01-11T14:45:18.008Z,91.30
2023-01-11T14:47:51.539Z,91.40
2023-01-11T14:50:27.279Z,91.40
2023-01-11T14:52:55.978Z,91.40
2023-01-11T14:55:25.122Z,91.50
2023-01-11T14:58:13.768Z,91.50
2023-01-11T15:00:43.416Z,91.50
2023-01-11T15:03:12.951Z,91.60
2023-01-11T15:05:59.307Z,91.70
2023-01-11T15:08:42.488Z,91.60
2023-01-11T15:11:41.779Z,91.60
2023-01-11T15:14:28.815Z,91.70
2023-01-11T15:17:17.343Z,91.70
2023-01-11T15:19:44.219Z,91.70
2023-01-11T15:22:25.108Z,91.80
2023-01-11T15:25:02.655Z,91.80
2023-01-11T15:27:37.253Z,91.90
2023-01-11T15:30:06.039Z,91.90
2023-01-11T15:32:36.059Z,92.00
2023-01-11T15:35:23.957Z,92.20
2023-01-11T15:38:14.210Z,92.40
2023-01-11T15:40:41.892Z,92.60
2023-01-11T15:43:26.933Z,92.80
2023-01-11T15:46:24.522Z,93.00
2023-01-11T15:49:13.027Z,93.20
2023-01-11T15:51:58.159Z,93.30
2023-01-11T15:54:31.436Z,93.50
2023-01-11T15:57:18.637Z,93.70
2023-01-11T16:00:06.914Z,94.30
2023-01-11T16:02:49.841Z,94.60
2023-01-11T16:05:20.378Z,95.00
2023-01-11T16:08:09.221Z,95.20
2023-01-11T16:10:43.540Z,95.60
2023-01-11T16:13:28.655Z,95.50
2023-01-11T16:16:32.245Z,95.60
2023-01-11T16:19:19.926Z,95.70
2023-01-11T16:21:49.604Z,95.80
2023-01-11T16:24:19.868Z,95.80
2023-01-11T16:26:55.196Z,95.90
2023-01-11T16:29:26.748Z,96.00
2023-01-11T16:31:55.459Z,96.00
2023-01-11T16:34:22.380Z,96.00
2023-01-11T16:36:49.358Z,96.10
2023-01-11T16:39:21.146Z,96.10
2023-01-11T16:42:05.839Z,96.20
2023-01-11T16:44:46.114Z,96.20
2023-01-11T16:47:17.587Z,96.30
2023-01-11T16:49:49.461Z,96.20
2023-01-11T16:52:28.532Z,96.30
2023-01-11T16:54:59.155Z,96.30
2023-01-11T16:57:32.147Z,96.40
2023-01-11T17:00:07.624Z,96.20
2023-01-11T17:02:40.031Z,96.20
2023-01-11T17:05:23.533Z,96.30
2023-01-11T17:07:50.350Z,96.40
2023-01-11T17:10:20.898Z,96.40
2023-01-11T17:12:53.554Z,96.50
2023-01-11T17:15:33.223Z,96.60
2023-01-11T17:18:09.134Z,96.50
2023-01-11T17:20:35.901Z,96.50
2023-01-11T17:23:02.682Z,96.40
2023-01-11T17:25:43.586Z,96.50
2023-01-11T17:28:16.426Z,96.50
2023-01-11T17:30:47.346Z,96.50
2023-01-11T17:33:33.063Z,96.50
2023-01-11T17:36:00.177Z,96.40
2023-01-11T17:38:27.018Z,96.30
2023-01-11T17:40:56.656Z,96.30
2023-01-11T17:43:46.279Z,96.30
2023-01-11T17:46:18.234Z,96.30
2023-01-11T17:48:55.836Z,96.30
2023-01-11T17:51:26.851Z,96.50
2023-01-11T17:53:55.167Z,96.30
2023-01-11T17:56:34.348Z,96.40
2023-01-11T17:59:39.373Z,96.30
2023-01-11T18:02:15.110Z,96.30
2023-01-11T18:04:42.060Z,96.30
2023-01-11T18:07:18.665Z,96.30
2023-01-11T18:09:49.894Z,96.30
2023-01-11T18:12:20.702Z,96.20
2023-01-11T18:14:54.305Z,96.20
2023-01-11T18:17:30.672Z,96.10
2023-01-11T18:19:57.610Z,96.10
2023-01-11T18:22:37.024Z,96.10
2023-01-11T18:25:23.817Z,96.00
2023-01-11T18:27:51.187Z,96.00
2023-01-11T18:30:33.438Z,96.00
2023-01-11T18:33:04.431Z,96.00
2023-01-11T18:35:31.236Z,95.90
2023-01-11T18:37:58.101Z,95.90
2023-01-11T18:40:24.951Z,95.90
2023-01-11T18:42:52.868Z,96.00
2023-01-11T18:45:20.381Z,95.90
2023-01-11T18:47:47.367Z,95.80
2023-01-11T18:50:15.729Z,95.70
2023-01-11T18:52:43.598Z,95.60
2023-01-11T18:55:11.341Z,95.60
2023-01-11T18:57:38.236Z,95.60
2023-01-11T19:00:05.395Z,95.60
2023-01-11T19:05:19.000Z,95.50
2023-01-11T19:07:45.873Z,95.50
2023-01-11T19:10:17.557Z,95.50
2023-01-11T19:12:44.982Z,95.40
2023-01-11T19:15:12.871Z,95.50
2023-01-11T19:17:39.805Z,95.40
2023-01-11T19:20:09.139Z,95.40
2023-01-11T19:22:37.129Z,95.40
2023-01-11T19:25:04.574Z,95.30
2023-01-11T19:27:31.339Z,95.20
2023-01-11T19:29:58.188Z,95.20
2023-01-11T19:32:25.642Z,95.10
2023-01-11T19:34:57.898Z,95.10
2023-01-11T19:37:26.468Z,95.20
2023-01-11T19:39:53.441Z,95.10
2023-01-11T19:42:21.097Z,95.10
2023-01-11T19:44:47.983Z,95.00
2023-01-11T19:47:17.692Z,95.00
2023-01-11T19:49:44.525Z,95.00
2023-01-11T19:52:13.419Z,95.00
2023-01-11T19:54:42.163Z,95.00
2023-01-11T19:57:14.156Z,95.00
2023-01-11T19:59:41.388Z,94.90
2023-01-11T20:02:08.177Z,95.00
2023-01-11T20:04:35.047Z,94.90
2023-01-11T20:07:01.907Z,94.90
2023-01-11T20:09:28.656Z,94.90
2023-01-11T20:11:55.836Z,94.90
2023-01-11T20:14:22.700Z,94.80
2023-01-11T20:16:49.521Z,94.90
2023-01-11T20:19:16.456Z,94.90
2023-01-11T20:21:43.535Z,94.90
2023-01-11T20:24:13.535Z,94.90
2023-01-11T20:26:40.767Z,94.90
2023-01-11T20:29:07.660Z,94.90
2023-01-11T20:31:35.557Z,94.90
2023-01-11T20:34:06.727Z,94.90
2023-01-11T20:36:33.806Z,94.80
2023-01-11T20:39:00.564Z,94.80
2023-01-11T20:41:46.241Z,94.80
2023-01-11T20:44:33.328Z,94.80
2023-01-11T20:47:00.369Z,94.70
2023-01-11T20:49:28.951Z,94.80
2023-01-11T20:51:56.417Z,94.80
2023-01-11T20:54:23.300Z,94.80
2023-01-11T20:56:50.062Z,95.10
2023-01-11T20:59:17.427Z,95.10
2023-01-11T21:01:44.378Z,95.10
2023-01-11T21:04:11.466Z,94.80
2023-01-11T21:06:40.195Z,94.70
2023-01-11T21:09:08.067Z,94.60
2023-01-11T21:11:34.928Z,94.60
2023-01-11T21:14:04.059Z,94.70
2023-01-11T21:16:31.137Z,94.80
2023-01-11T21:19:00.022Z,94.80
2023-01-11T21:21:27.266Z,94.80
2023-01-11T21:23:55.815Z,94.90
2023-01-11T21:26:22.697Z,95.10
2023-01-11T21:28:54.103Z,94.80
2023-01-11T21:31:21.334Z,94.80
2023-01-11T21:33:49.066Z,94.80
2023-01-11T21:36:20.636Z,94.70
2023-01-11T21:38:47.657Z,94.70
2023-01-11T21:41:41.984Z,94.60
2023-01-11T21:44:09.156Z,94.60
2023-01-11T21:46:36.075Z,94.70
2023-01-11T21:49:02.908Z,94.70
2023-01-11T21:51:32.613Z,94.70
2023-01-11T21:53:59.594Z,94.70
2023-01-11T21:56:26.527Z,94.70
2023-01-11T21:58:53.311Z,94.70
2023-01-11T22:01:21.690Z,94.70
2023-01-11T22:03:48.618Z,94.80
2023-01-11T22:06:15.995Z,95.00
2023-01-11T22:08:46.252Z,94.70
2023-01-11T22:11:14.310Z,94.70
2023-01-11T22:13:41.204Z,94.60
2023-01-11T22:16:16.516Z,94.60
2023-01-11T22:18:44.006Z,94.60
2023-01-11T22:21:12.643Z,94.70
2023-01-11T22:23:39.926Z,94.70
2023-01-11T22:26:11.572Z,94.70
2023-01-11T22:28:57.344Z,94.60
2023-01-11T22:31:25.361Z,94.60
2023-01-11T22:33:52.259Z,94.60
2023-01-11T22:36:19.609Z,94.60
2023-01-11T22:38:46.899Z,94.50
2023-01-11T22:41:14.907Z,94.70
2023-01-11T22:43:43.117Z,94.50
2023-01-11T22:46:14.742Z,94.50
2023-01-11T22:48:41.696Z,94.40
2023-01-11T22:51:08.950Z,94.50
2023-01-11T22:53:39.790Z,94.40
2023-01-11T22:56:07.030Z,94.40
2023-01-11T22:58:35.913Z,94.30
2023-01-11T23:01:17.818Z,94.30
2023-01-11T23:03:45.471Z,94.30
2023-01-11T23:06:12.571Z,94.30
2023-01-11T23:08:43.514Z,94.30
2023-01-11T23:11:14.750Z,94.20
2023-01-11T23:13:55.001Z,94.20
2023-01-11T23:16:22.767Z,94.10
2023-01-11T23:18:49.750Z,94.20
2023-01-11T23:21:16.937Z,94.10
2023-01-11T23:23:43.859Z,94.10
2023-01-11T23:26:12.187Z,94.10
2023-01-11T23:28:39.320Z,94.10
2023-01-11T23:31:17.309Z,94.10
2023-01-11T23:33:48.801Z,94.10
2023-01-11T23:36:16.098Z,94.10
2023-01-11T23:38:43.053Z,94.00
2023-01-11T23:41:29.845Z,94.00
2023-01-11T23:43:56.807Z,93.90
2023-01-11T23:46:42.136Z,93.90
2023-01-11T23:49:09.207Z,93.90
2023-01-11T23:51:36.144Z,94.00
2023-01-11T23:54:03.894Z,94.10
2023-01-11T23:56:30.881Z,94.20
2023-01-11T23:58:58.015Z,94.30
